sensor_id;sensor_type;location;lat;lon;timestamp;P1;durP1;ratioP1;P2;durP2;ratioP2
8580;SDS011;4328;48.622;9.230;2022-07-23T00:00:09;7.10;;;6.47;;
8580;SDS011;4328;48.622;9.230;2022-07-23T00:02:36;8.73;;;6.53;;
8580;SDS011;4328;48.622;9.230;2022-07-23T00:05:03;7.00;;;6.40;;
8580;SDS011;4328;48.622;9.230;2022-07-23T00:07:30;6.80;;;6.30;;
8580;SDS011;4328;48.622;9.230;2022-07-23T00:09:57;6.60;;;6.00;;
8580;SDS011;4328;48.622;9.230;2022-07-23T00:12:24;6.40;;;5.90;;
8580;SDS011;4328;48.622;9.230;2022-07-23T00:14:50;6.63;;;6.13;;
8580;SDS011;4328;48.622;9.230;2022-07-23T00:17:18;7.17;;;6.63;;
8580;SDS011;4328;48.622;9.230;2022-07-23T00:19:45;6.93;;;5.93;;
8580;SDS011;4328;48.622;9.230;2022-07-23T00:22:13;6.83;;;6.23;;
8580;SDS011;4328;48.622;9.230;2022-07-23T00:24:39;6.90;;;6.40;;
8580;SDS011;4328;48.622;9.230;2022-07-23T00:27:06;7.00;;;6.40;;
8580;SDS011;4328;48.622;9.230;2022-07-23T00:29:33;6.47;;;5.90;;
8580;SDS011;4328;48.622;9.230;2022-07-23T00:31:59;6.60;;;6.10;;
8580;SDS011;4328;48.622;9.230;2022-07-23T00:34:27;7.23;;;6.63;;
8580;SDS011;4328;48.622;9.230;2022-07-23T00:36:54;6.70;;;6.20;;
8580;SDS011;4328;48.622;9.230;2022-07-23T00:39:21;6.83;;;6.33;;
8580;SDS011;4328;48.622;9.230;2022-07-23T00:41:48;6.93;;;6.43;;
8580;SDS011;4328;48.622;9.230;2022-07-23T00:44:18;6.70;;;6.10;;
8580;SDS011;4328;48.622;9.230;2022-07-23T00:46:46;6.70;;;6.10;;
8580;SDS011;4328;48.622;9.230;2022-07-23T00:49:14;7.80;;;6.13;;
8580;SDS011;4328;48.622;9.230;2022-07-23T00:51:43;6.90;;;6.20;;
8580;SDS011;4328;48.622;9.230;2022-07-23T00:54:10;6.40;;;5.90;;
8580;SDS011;4328;48.622;9.230;2022-07-23T00:56:37;6.57;;;6.00;;
8580;SDS011;4328;48.622;9.230;2022-07-23T00:59:05;6.03;;;5.57;;
8580;SDS011;4328;48.622;9.230;2022-07-23T01:01:32;5.37;;;4.90;;
8580;SDS011;4328;48.622;9.230;2022-07-23T01:04:00;4.97;;;4.57;;
8580;SDS011;4328;48.622;9.230;2022-07-23T01:06:27;4.83;;;4.40;;
8580;SDS011;4328;48.622;9.230;2022-07-23T01:08:55;4.67;;;4.37;;
8580;SDS011;4328;48.622;9.230;2022-07-23T01:11:22;4.73;;;4.37;;
8580;SDS011;4328;48.622;9.230;2022-07-23T01:13:50;4.87;;;4.43;;
8580;SDS011;4328;48.622;9.230;2022-07-23T01:16:16;5.17;;;4.70;;
8580;SDS011;4328;48.622;9.230;2022-07-23T01:18:43;4.83;;;4.43;;
8580;SDS011;4328;48.622;9.230;2022-07-23T01:21:10;4.97;;;4.40;;
8580;SDS011;4328;48.622;9.230;2022-07-23T01:23:40;4.70;;;4.23;;
8580;SDS011;4328;48.622;9.230;2022-07-23T01:26:07;4.83;;;4.07;;
8580;SDS011;4328;48.622;9.230;2022-07-23T01:28:34;4.33;;;3.93;;
8580;SDS011;4328;48.622;9.230;2022-07-23T01:31:00;4.77;;;4.37;;
8580;SDS011;4328;48.622;9.230;2022-07-23T01:33:27;4.50;;;4.23;;
8580;SDS011;4328;48.622;9.230;2022-07-23T01:35:54;4.33;;;4.03;;
8580;SDS011;4328;48.622;9.230;2022-07-23T01:38:21;4.70;;;4.30;;
8580;SDS011;4328;48.622;9.230;2022-07-23T01:40:49;4.73;;;4.37;;
8580;SDS011;4328;48.622;9.230;2022-07-23T01:43:16;4.83;;;4.53;;
8580;SDS011;4328;48.622;9.230;2022-07-23T01:45:43;4.80;;;4.50;;
8580;SDS011;4328;48.622;9.230;2022-07-23T01:48:09;4.93;;;4.53;;
8580;SDS011;4328;48.622;9.230;2022-07-23T01:50:37;5.00;;;4.60;;
8580;SDS011;4328;48.622;9.230;2022-07-23T01:53:04;4.50;;;4.20;;
8580;SDS011;4328;48.622;9.230;2022-07-23T01:55:31;4.47;;;4.17;;
8580;SDS011;4328;48.622;9.230;2022-07-23T01:57:59;4.77;;;4.37;;
8580;SDS011;4328;48.622;9.230;2022-07-23T02:00:28;4.30;;;4.00;;
8580;SDS011;4328;48.622;9.230;2022-07-23T02:02:58;4.97;;;4.57;;
8580;SDS011;4328;48.622;9.230;2022-07-23T02:05:26;5.23;;;4.43;;
8580;SDS011;4328;48.622;9.230;2022-07-23T02:07:53;4.70;;;4.27;;
8580;SDS011;4328;48.622;9.230;2022-07-23T02:10:20;4.47;;;4.17;;
8580;SDS011;4328;48.622;9.230;2022-07-23T02:12:47;4.77;;;4.47;;
8580;SDS011;4328;48.622;9.230;2022-07-23T02:15:15;4.77;;;4.37;;
8580;SDS011;4328;48.622;9.230;2022-07-23T02:17:42;4.37;;;4.07;;
8580;SDS011;4328;48.622;9.230;2022-07-23T02:20:10;5.00;;;4.50;;
8580;SDS011;4328;48.622;9.230;2022-07-23T02:22:37;4.53;;;4.23;;
8580;SDS011;4328;48.622;9.230;2022-07-23T02:25:04;4.67;;;4.27;;
8580;SDS011;4328;48.622;9.230;2022-07-23T02:27:33;4.80;;;4.40;;
8580;SDS011;4328;48.622;9.230;2022-07-23T02:30:01;4.93;;;4.53;;
8580;SDS011;4328;48.622;9.230;2022-07-23T02:32:29;4.67;;;4.37;;
8580;SDS011;4328;48.622;9.230;2022-07-23T02:34:56;4.57;;;4.27;;
8580;SDS011;4328;48.622;9.230;2022-07-23T02:37:23;4.97;;;4.40;;
8580;SDS011;4328;48.622;9.230;2022-07-23T02:39:49;5.10;;;4.70;;
8580;SDS011;4328;48.622;9.230;2022-07-23T02:42:16;6.47;;;4.37;;
8580;SDS011;4328;48.622;9.230;2022-07-23T02:44:43;4.57;;;4.27;;
8580;SDS011;4328;48.622;9.230;2022-07-23T02:47:10;4.70;;;4.30;;
8580;SDS011;4328;48.622;9.230;2022-07-23T02:49:38;6.87;;;4.20;;
8580;SDS011;4328;48.622;9.230;2022-07-23T02:52:05;4.57;;;4.10;;
8580;SDS011;4328;48.622;9.230;2022-07-23T02:54:32;4.57;;;4.23;;
8580;SDS011;4328;48.622;9.230;2022-07-23T02:56:58;4.70;;;4.23;;
8580;SDS011;4328;48.622;9.230;2022-07-23T02:59:25;4.93;;;4.53;;
8580;SDS011;4328;48.622;9.230;2022-07-23T03:01:52;4.93;;;4.50;;
8580;SDS011;4328;48.622;9.230;2022-07-23T03:04:18;5.17;;;4.77;;
8580;SDS011;4328;48.622;9.230;2022-07-23T03:06:46;4.80;;;4.40;;
8580;SDS011;4328;48.622;9.230;2022-07-23T03:09:13;4.87;;;4.10;;
8580;SDS011;4328;48.622;9.230;2022-07-23T03:11:40;4.63;;;4.23;;
8580;SDS011;4328;48.622;9.230;2022-07-23T03:14:06;4.70;;;4.40;;
8580;SDS011;4328;48.622;9.230;2022-07-23T03:16:33;5.07;;;4.50;;
8580;SDS011;4328;48.622;9.230;2022-07-23T03:19:00;6.20;;;4.20;;
8580;SDS011;4328;48.622;9.230;2022-07-23T03:21:26;4.50;;;4.10;;
8580;SDS011;4328;48.622;9.230;2022-07-23T03:23:56;6.87;;;4.20;;
8580;SDS011;4328;48.622;9.230;2022-07-23T03:26:23;4.67;;;4.27;;
8580;SDS011;4328;48.622;9.230;2022-07-23T03:28:50;4.47;;;4.07;;
8580;SDS011;4328;48.622;9.230;2022-07-23T03:31:17;4.30;;;4.00;;
8580;SDS011;4328;48.622;9.230;2022-07-23T03:33:44;4.87;;;4.47;;
8580;SDS011;4328;48.622;9.230;2022-07-23T03:36:10;4.83;;;4.47;;
8580;SDS011;4328;48.622;9.230;2022-07-23T03:38:37;4.60;;;4.20;;
8580;SDS011;4328;48.622;9.230;2022-07-23T03:41:05;5.07;;;4.67;;
8580;SDS011;4328;48.622;9.230;2022-07-23T03:43:32;4.80;;;4.37;;
8580;SDS011;4328;48.622;9.230;2022-07-23T03:45:59;4.93;;;4.53;;
8580;SDS011;4328;48.622;9.230;2022-07-23T03:48:26;5.17;;;4.40;;
8580;SDS011;4328;48.622;9.230;2022-07-23T03:50:53;4.87;;;4.10;;
8580;SDS011;4328;48.622;9.230;2022-07-23T03:53:20;4.63;;;4.23;;
8580;SDS011;4328;48.622;9.230;2022-07-23T03:55:47;4.80;;;4.50;;
8580;SDS011;4328;48.622;9.230;2022-07-23T03:58:15;4.47;;;4.07;;
8580;SDS011;4328;48.622;9.230;2022-07-23T04:00:41;3.97;;;3.67;;
8580;SDS011;4328;48.622;9.230;2022-07-23T04:03:08;4.60;;;4.13;;
8580;SDS011;4328;48.622;9.230;2022-07-23T04:05:35;5.10;;;4.60;;
8580;SDS011;4328;48.622;9.230;2022-07-23T04:08:02;4.97;;;4.23;;
8580;SDS011;4328;48.622;9.230;2022-07-23T04:10:30;5.47;;;4.30;;
8580;SDS011;4328;48.622;9.230;2022-07-23T04:12:57;4.60;;;4.20;;
8580;SDS011;4328;48.622;9.230;2022-07-23T04:15:25;5.33;;;4.83;;
8580;SDS011;4328;48.622;9.230;2022-07-23T04:17:52;4.90;;;4.60;;
8580;SDS011;4328;48.622;9.230;2022-07-23T04:20:19;4.60;;;4.30;;
8580;SDS011;4328;48.622;9.230;2022-07-23T04:22:45;4.70;;;4.40;;
8580;SDS011;4328;48.622;9.230;2022-07-23T04:25:12;4.80;;;4.40;;
8580;SDS011;4328;48.622;9.230;2022-07-23T04:27:41;5.23;;;4.80;;
8580;SDS011;4328;48.622;9.230;2022-07-23T04:30:08;5.07;;;4.77;;
8580;SDS011;4328;48.622;9.230;2022-07-23T04:32:36;4.80;;;4.50;;
8580;SDS011;4328;48.622;9.230;2022-07-23T04:35:05;4.73;;;4.30;;
8580;SDS011;4328;48.622;9.230;2022-07-23T04:37:32;5.17;;;4.70;;
8580;SDS011;4328;48.622;9.230;2022-07-23T04:39:59;4.70;;;4.27;;
8580;SDS011;4328;48.622;9.230;2022-07-23T04:42:26;4.80;;;4.47;;
8580;SDS011;4328;48.622;9.230;2022-07-23T04:44:52;5.00;;;4.60;;
8580;SDS011;4328;48.622;9.230;2022-07-23T04:47:19;5.10;;;4.63;;
8580;SDS011;4328;48.622;9.230;2022-07-23T04:49:47;4.73;;;4.33;;
8580;SDS011;4328;48.622;9.230;2022-07-23T04:52:14;5.23;;;4.83;;
8580;SDS011;4328;48.622;9.230;2022-07-23T04:54:41;5.10;;;4.70;;
8580;SDS011;4328;48.622;9.230;2022-07-23T04:57:07;4.60;;;4.30;;
8580;SDS011;4328;48.622;9.230;2022-07-23T04:59:34;4.70;;;4.40;;
8580;SDS011;4328;48.622;9.230;2022-07-23T05:02:01;4.87;;;4.57;;
8580;SDS011;4328;48.622;9.230;2022-07-23T05:04:28;5.43;;;4.57;;
8580;SDS011;4328;48.622;9.230;2022-07-23T05:06:56;5.00;;;4.50;;
8580;SDS011;4328;48.622;9.230;2022-07-23T05:09:23;6.60;;;4.40;;
8580;SDS011;4328;48.622;9.230;2022-07-23T05:11:50;6.10;;;4.97;;
8580;SDS011;4328;48.622;9.230;2022-07-23T05:14:17;5.13;;;4.53;;
8580;SDS011;4328;48.622;9.230;2022-07-23T05:16:43;4.93;;;4.60;;
8580;SDS011;4328;48.622;9.230;2022-07-23T05:19:10;5.10;;;4.70;;
8580;SDS011;4328;48.622;9.230;2022-07-23T05:21:38;4.83;;;4.43;;
8580;SDS011;4328;48.622;9.230;2022-07-23T05:24:07;5.43;;;4.90;;
8580;SDS011;4328;48.622;9.230;2022-07-23T05:26:33;5.23;;;4.83;;
8580;SDS011;4328;48.622;9.230;2022-07-23T05:29:00;5.23;;;4.83;;
8580;SDS011;4328;48.622;9.230;2022-07-23T05:31:27;4.90;;;4.53;;
8580;SDS011;4328;48.622;9.230;2022-07-23T05:33:54;5.20;;;4.80;;
8580;SDS011;4328;48.622;9.230;2022-07-23T05:36:22;5.20;;;4.80;;
8580;SDS011;4328;48.622;9.230;2022-07-23T05:38:48;5.13;;;4.73;;
8580;SDS011;4328;48.622;9.230;2022-07-23T05:41:16;5.30;;;4.77;;
8580;SDS011;4328;48.622;9.230;2022-07-23T05:43:43;4.90;;;4.57;;
8580;SDS011;4328;48.622;9.230;2022-07-23T05:46:10;5.23;;;4.83;;
8580;SDS011;4328;48.622;9.230;2022-07-23T05:48:37;5.87;;;4.70;;
8580;SDS011;4328;48.622;9.230;2022-07-23T05:51:03;5.30;;;4.87;;
8580;SDS011;4328;48.622;9.230;2022-07-23T05:53:31;5.23;;;4.90;;
8580;SDS011;4328;48.622;9.230;2022-07-23T05:55:59;5.53;;;5.03;;
8580;SDS011;4328;48.622;9.230;2022-07-23T05:58:27;5.87;;;5.13;;
8580;SDS011;4328;48.622;9.230;2022-07-23T06:00:54;5.57;;;5.03;;
8580;SDS011;4328;48.622;9.230;2022-07-23T06:03:21;5.10;;;4.80;;
8580;SDS011;4328;48.622;9.230;2022-07-23T06:05:47;5.17;;;4.77;;
8580;SDS011;4328;48.622;9.230;2022-07-23T06:08:14;5.63;;;5.13;;
8580;SDS011;4328;48.622;9.230;2022-07-23T06:10:40;5.27;;;4.87;;
8580;SDS011;4328;48.622;9.230;2022-07-23T06:13:07;5.63;;;5.17;;
8580;SDS011;4328;48.622;9.230;2022-07-23T06:15:35;5.73;;;5.30;;
8580;SDS011;4328;48.622;9.230;2022-07-23T06:18:02;5.57;;;5.20;;
8580;SDS011;4328;48.622;9.230;2022-07-23T06:20:29;6.00;;;5.40;;
8580;SDS011;4328;48.622;9.230;2022-07-23T06:22:56;5.83;;;5.37;;
8580;SDS011;4328;48.622;9.230;2022-07-23T06:25:22;6.60;;;5.93;;
8580;SDS011;4328;48.622;9.230;2022-07-23T06:27:49;5.83;;;5.43;;
8580;SDS011;4328;48.622;9.230;2022-07-23T06:30:16;6.57;;;5.70;;
8580;SDS011;4328;48.622;9.230;2022-07-23T06:32:45;5.97;;;5.37;;
8580;SDS011;4328;48.622;9.230;2022-07-23T06:35:12;5.80;;;5.30;;
8580;SDS011;4328;48.622;9.230;2022-07-23T06:37:38;6.63;;;5.70;;
8580;SDS011;4328;48.622;9.230;2022-07-23T06:40:06;5.93;;;5.43;;
8580;SDS011;4328;48.622;9.230;2022-07-23T06:42:33;6.13;;;5.63;;
8580;SDS011;4328;48.622;9.230;2022-07-23T06:45:02;6.57;;;5.60;;
8580;SDS011;4328;48.622;9.230;2022-07-23T06:47:29;6.03;;;5.53;;
8580;SDS011;4328;48.622;9.230;2022-07-23T06:49:57;5.87;;;5.37;;
8580;SDS011;4328;48.622;9.230;2022-07-23T06:52:24;5.87;;;5.37;;
8580;SDS011;4328;48.622;9.230;2022-07-23T06:54:51;5.90;;;5.33;;
8580;SDS011;4328;48.622;9.230;2022-07-23T06:57:18;6.83;;;6.23;;
8580;SDS011;4328;48.622;9.230;2022-07-23T06:59:44;6.67;;;6.10;;
8580;SDS011;4328;48.622;9.230;2022-07-23T07:02:11;6.27;;;5.77;;
8580;SDS011;4328;48.622;9.230;2022-07-23T07:04:38;6.40;;;5.80;;
8580;SDS011;4328;48.622;9.230;2022-07-23T07:07:06;6.47;;;5.97;;
8580;SDS011;4328;48.622;9.230;2022-07-23T07:09:33;5.80;;;5.23;;
8580;SDS011;4328;48.622;9.230;2022-07-23T07:11:59;5.70;;;5.30;;
8580;SDS011;4328;48.622;9.230;2022-07-23T07:14:26;5.77;;;5.37;;
8580;SDS011;4328;48.622;9.230;2022-07-23T07:16:53;5.73;;;5.33;;
8580;SDS011;4328;48.622;9.230;2022-07-23T07:19:19;6.03;;;5.53;;
8580;SDS011;4328;48.622;9.230;2022-07-23T07:21:48;5.73;;;5.33;;
8580;SDS011;4328;48.622;9.230;2022-07-23T07:24:16;5.40;;;5.00;;
8580;SDS011;4328;48.622;9.230;2022-07-23T07:26:43;5.93;;;5.53;;
8580;SDS011;4328;48.622;9.230;2022-07-23T07:29:09;5.63;;;5.23;;
8580;SDS011;4328;48.622;9.230;2022-07-23T07:31:36;5.57;;;5.17;;
8580;SDS011;4328;48.622;9.230;2022-07-23T07:34:04;5.50;;;5.03;;
8580;SDS011;4328;48.622;9.230;2022-07-23T07:36:30;5.87;;;5.37;;
8580;SDS011;4328;48.622;9.230;2022-07-23T07:38:57;5.90;;;5.40;;
8580;SDS011;4328;48.622;9.230;2022-07-23T07:41:25;5.82;;;5.40;;
8580;SDS011;4328;48.622;9.230;2022-07-23T07:43:52;5.63;;;5.13;;
8580;SDS011;4328;48.622;9.230;2022-07-23T07:46:19;5.03;;;4.73;;
8580;SDS011;4328;48.622;9.230;2022-07-23T07:48:49;6.03;;;5.00;;
8580;SDS011;4328;48.622;9.230;2022-07-23T07:51:15;5.20;;;4.80;;
8580;SDS011;4328;48.622;9.230;2022-07-23T07:53:43;5.38;;;4.97;;
8580;SDS011;4328;48.622;9.230;2022-07-23T07:56:10;5.50;;;5.10;;
8580;SDS011;4328;48.622;9.230;2022-07-23T07:58:38;5.13;;;4.83;;
8580;SDS011;4328;48.622;9.230;2022-07-23T08:01:05;5.40;;;4.97;;
8580;SDS011;4328;48.622;9.230;2022-07-23T08:03:32;5.40;;;5.00;;
8580;SDS011;4328;48.622;9.230;2022-07-23T08:05:59;5.35;;;4.95;;
8580;SDS011;4328;48.622;9.230;2022-07-23T08:08:25;5.40;;;5.00;;
8580;SDS011;4328;48.622;9.230;2022-07-23T08:10:52;5.40;;;4.90;;
8580;SDS011;4328;48.622;9.230;2022-07-23T08:13:18;5.10;;;4.77;;
8580;SDS011;4328;48.622;9.230;2022-07-23T08:15:46;6.15;;;4.72;;
8580;SDS011;4328;48.622;9.230;2022-07-23T08:18:13;5.93;;;5.43;;
8580;SDS011;4328;48.622;9.230;2022-07-23T08:20:40;6.07;;;5.18;;
8580;SDS011;4328;48.622;9.230;2022-07-23T08:23:07;5.88;;;5.38;;
8580;SDS011;4328;48.622;9.230;2022-07-23T08:25:35;5.33;;;4.93;;
8580;SDS011;4328;48.622;9.230;2022-07-23T08:28:03;5.55;;;5.05;;
8580;SDS011;4328;48.622;9.230;2022-07-23T08:30:33;5.50;;;5.00;;
8580;SDS011;4328;48.622;9.230;2022-07-23T08:33:03;5.25;;;4.85;;
8580;SDS011;4328;48.622;9.230;2022-07-23T08:35:32;5.15;;;4.75;;
8580;SDS011;4328;48.622;9.230;2022-07-23T08:38:01;5.22;;;4.82;;
8580;SDS011;4328;48.622;9.230;2022-07-23T08:40:29;5.28;;;4.90;;
8580;SDS011;4328;48.622;9.230;2022-07-23T08:42:57;5.55;;;5.05;;
8580;SDS011;4328;48.622;9.230;2022-07-23T08:45:25;6.50;;;5.13;;
8580;SDS011;4328;48.622;9.230;2022-07-23T08:47:54;5.25;;;4.85;;
8580;SDS011;4328;48.622;9.230;2022-07-23T08:50:23;5.68;;;5.18;;
8580;SDS011;4328;48.622;9.230;2022-07-23T08:52:50;5.85;;;5.45;;
8580;SDS011;4328;48.622;9.230;2022-07-23T08:55:19;5.75;;;4.53;;
8580;SDS011;4328;48.622;9.230;2022-07-23T08:57:48;5.57;;;5.03;;
8580;SDS011;4328;48.622;9.230;2022-07-23T09:00:16;5.55;;;5.15;;
8580;SDS011;4328;48.622;9.230;2022-07-23T09:02:44;5.35;;;5.05;;
8580;SDS011;4328;48.622;9.230;2022-07-23T09:05:13;5.65;;;5.20;;
8580;SDS011;4328;48.622;9.230;2022-07-23T09:10:30;5.70;;;5.25;;
8580;SDS011;4328;48.622;9.230;2022-07-23T09:13:14;5.60;;;5.10;;
8580;SDS011;4328;48.622;9.230;2022-07-23T09:15:49;5.90;;;5.43;;
8580;SDS011;4328;48.622;9.230;2022-07-23T09:18:16;5.75;;;5.28;;
8580;SDS011;4328;48.622;9.230;2022-07-23T09:20:43;8.05;;;5.30;;
8580;SDS011;4328;48.622;9.230;2022-07-23T09:23:12;6.13;;;5.63;;
8580;SDS011;4328;48.622;9.230;2022-07-23T09:25:38;5.40;;;5.00;;
8580;SDS011;4328;48.622;9.230;2022-07-23T09:28:07;5.40;;;5.00;;
8580;SDS011;4328;48.622;9.230;2022-07-23T09:30:33;6.40;;;5.82;;
8580;SDS011;4328;48.622;9.230;2022-07-23T09:33:04;6.10;;;5.60;;
8580;SDS011;4328;48.622;9.230;2022-07-23T09:35:46;6.35;;;5.80;;
8580;SDS011;4328;48.622;9.230;2022-07-23T09:38:15;5.80;;;5.40;;
8580;SDS011;4328;48.622;9.230;2022-07-23T09:40:43;6.22;;;5.72;;
8580;SDS011;4328;48.622;9.230;2022-07-23T09:43:11;6.78;;;6.28;;
8580;SDS011;4328;48.622;9.230;2022-07-23T09:45:39;5.93;;;5.40;;
8580;SDS011;4328;48.622;9.230;2022-07-23T09:48:12;6.18;;;5.38;;
8580;SDS011;4328;48.622;9.230;2022-07-23T09:50:40;6.10;;;5.50;;
8580;SDS011;4328;48.622;9.230;2022-07-23T09:53:07;6.07;;;5.57;;
8580;SDS011;4328;48.622;9.230;2022-07-23T09:55:36;6.45;;;5.82;;
8580;SDS011;4328;48.622;9.230;2022-07-23T09:58:04;6.25;;;5.75;;
8580;SDS011;4328;48.622;9.230;2022-07-23T10:00:33;5.63;;;5.22;;
8580;SDS011;4328;48.622;9.230;2022-07-23T10:03:00;6.13;;;5.70;;
8580;SDS011;4328;48.622;9.230;2022-07-23T10:05:28;6.10;;;5.70;;
8580;SDS011;4328;48.622;9.230;2022-07-23T10:07:56;6.30;;;5.85;;
8580;SDS011;4328;48.622;9.230;2022-07-23T10:10:28;6.22;;;5.68;;
8580;SDS011;4328;48.622;9.230;2022-07-23T10:12:57;6.10;;;5.55;;
8580;SDS011;4328;48.622;9.230;2022-07-23T10:15:41;6.60;;;6.10;;
8580;SDS011;4328;48.622;9.230;2022-07-23T10:18:09;6.40;;;5.80;;
8580;SDS011;4328;48.622;9.230;2022-07-23T10:20:38;7.40;;;5.85;;
8580;SDS011;4328;48.622;9.230;2022-07-23T10:23:08;6.38;;;5.88;;
8580;SDS011;4328;48.622;9.230;2022-07-23T10:25:44;6.35;;;5.93;;
8580;SDS011;4328;48.622;9.230;2022-07-23T10:28:25;6.57;;;6.07;;
8580;SDS011;4328;48.622;9.230;2022-07-23T10:31:09;6.65;;;6.18;;
8580;SDS011;4328;48.622;9.230;2022-07-23T10:33:46;5.55;;;5.13;;
8580;SDS011;4328;48.622;9.230;2022-07-23T10:36:22;6.38;;;5.78;;
8580;SDS011;4328;48.622;9.230;2022-07-23T10:38:54;5.78;;;5.32;;
8580;SDS011;4328;48.622;9.230;2022-07-23T10:41:33;6.35;;;5.95;;
8580;SDS011;4328;48.622;9.230;2022-07-23T10:44:08;6.47;;;6.00;;
8580;SDS011;4328;48.622;9.230;2022-07-23T10:46:36;6.60;;;6.00;;
8580;SDS011;4328;48.622;9.230;2022-07-23T10:49:25;6.38;;;5.72;;
8580;SDS011;4328;48.622;9.230;2022-07-23T10:52:15;6.22;;;5.72;;
8580;SDS011;4328;48.622;9.230;2022-07-23T10:54:42;5.80;;;5.40;;
8580;SDS011;4328;48.622;9.230;2022-07-23T10:57:10;6.93;;;5.95;;
8580;SDS011;4328;48.622;9.230;2022-07-23T11:02:42;6.22;;;5.82;;
8580;SDS011;4328;48.622;9.230;2022-07-23T11:05:10;6.05;;;5.55;;
8580;SDS011;4328;48.622;9.230;2022-07-23T11:10:54;6.78;;;6.18;;
8580;SDS011;4328;48.622;9.230;2022-07-23T11:13:40;6.50;;;6.00;;
8580;SDS011;4328;48.622;9.230;2022-07-23T11:16:20;6.85;;;6.30;;
8580;SDS011;4328;48.622;9.230;2022-07-23T11:21:44;6.50;;;5.85;;
8580;SDS011;4328;48.622;9.230;2022-07-23T11:24:13;6.93;;;6.38;;
8580;SDS011;4328;48.622;9.230;2022-07-23T11:26:42;6.57;;;6.07;;
8580;SDS011;4328;48.622;9.230;2022-07-23T11:32:29;6.13;;;5.55;;
8580;SDS011;4328;48.622;9.230;2022-07-23T11:35:00;6.00;;;5.57;;
8580;SDS011;4328;48.622;9.230;2022-07-23T11:37:32;6.47;;;5.97;;
8580;SDS011;4328;48.622;9.230;2022-07-23T11:40:01;6.00;;;5.60;;
8580;SDS011;4328;48.622;9.230;2022-07-23T11:42:31;6.40;;;5.90;;
8580;SDS011;4328;48.622;9.230;2022-07-23T11:44:58;6.93;;;6.32;;
8580;SDS011;4328;48.622;9.230;2022-07-23T11:47:26;8.15;;;6.60;;
8580;SDS011;4328;48.622;9.230;2022-07-23T11:49:53;6.00;;;5.50;;
8580;SDS011;4328;48.622;9.230;2022-07-23T11:52:22;5.40;;;5.00;;
8580;SDS011;4328;48.622;9.230;2022-07-23T11:54:51;5.95;;;5.47;;
8580;SDS011;4328;48.622;9.230;2022-07-23T11:57:19;5.60;;;5.10;;
8580;SDS011;4328;48.622;9.230;2022-07-23T11:59:49;6.85;;;5.07;;
8580;SDS011;4328;48.622;9.230;2022-07-23T12:02:19;5.57;;;5.07;;
8580;SDS011;4328;48.622;9.230;2022-07-23T12:04:47;5.63;;;5.22;;
8580;SDS011;4328;48.622;9.230;2022-07-23T12:07:26;5.60;;;5.15;;
8580;SDS011;4328;48.622;9.230;2022-07-23T12:09:54;5.78;;;5.32;;
8580;SDS011;4328;48.622;9.230;2022-07-23T12:12:22;5.60;;;5.20;;
8580;SDS011;4328;48.622;9.230;2022-07-23T12:14:50;5.68;;;5.28;;
8580;SDS011;4328;48.622;9.230;2022-07-23T12:17:18;5.82;;;5.40;;
8580;SDS011;4328;48.622;9.230;2022-07-23T12:19:45;5.57;;;5.18;;
8580;SDS011;4328;48.622;9.230;2022-07-23T12:22:15;5.30;;;4.90;;
8580;SDS011;4328;48.622;9.230;2022-07-23T12:27:27;5.00;;;4.60;;
8580;SDS011;4328;48.622;9.230;2022-07-23T12:29:54;4.70;;;4.40;;
8580;SDS011;4328;48.622;9.230;2022-07-23T12:32:21;5.28;;;4.82;;
8580;SDS011;4328;48.622;9.230;2022-07-23T12:34:50;5.53;;;5.13;;
8580;SDS011;4328;48.622;9.230;2022-07-23T12:37:29;5.00;;;4.70;;
8580;SDS011;4328;48.622;9.230;2022-07-23T12:42:53;5.15;;;4.78;;
8580;SDS011;4328;48.622;9.230;2022-07-23T12:45:22;5.22;;;4.72;;
8580;SDS011;4328;48.622;9.230;2022-07-23T12:47:53;5.28;;;4.88;;
8580;SDS011;4328;48.622;9.230;2022-07-23T12:50:37;4.93;;;4.60;;
8580;SDS011;4328;48.622;9.230;2022-07-23T12:53:06;5.10;;;4.80;;
8580;SDS011;4328;48.622;9.230;2022-07-23T12:55:36;5.68;;;5.20;;
8580;SDS011;4328;48.622;9.230;2022-07-23T12:58:04;5.53;;;5.03;;
8580;SDS011;4328;48.622;9.230;2022-07-23T13:00:55;5.10;;;4.70;;
8580;SDS011;4328;48.622;9.230;2022-07-23T13:03:31;5.13;;;4.72;;
8580;SDS011;4328;48.622;9.230;2022-07-23T13:06:00;5.22;;;4.93;;
8580;SDS011;4328;48.622;9.230;2022-07-23T13:08:29;5.13;;;4.80;;
8580;SDS011;4328;48.622;9.230;2022-07-23T13:10:59;5.38;;;4.97;;
8580;SDS011;4328;48.622;9.230;2022-07-23T13:13:26;5.07;;;4.72;;
8580;SDS011;4328;48.622;9.230;2022-07-23T13:15:56;5.45;;;5.15;;
8580;SDS011;4328;48.622;9.230;2022-07-23T13:18:23;5.70;;;5.20;;
8580;SDS011;4328;48.622;9.230;2022-07-23T13:20:50;5.70;;;5.30;;
8580;SDS011;4328;48.622;9.230;2022-07-23T13:23:17;5.40;;;5.00;;
8580;SDS011;4328;48.622;9.230;2022-07-23T13:25:44;5.13;;;4.72;;
8580;SDS011;4328;48.622;9.230;2022-07-23T13:28:13;5.60;;;5.13;;
8580;SDS011;4328;48.622;9.230;2022-07-23T13:30:40;5.43;;;5.00;;
8580;SDS011;4328;48.622;9.230;2022-07-23T13:33:08;5.95;;;5.35;;
8580;SDS011;4328;48.622;9.230;2022-07-23T13:35:35;6.32;;;4.97;;
8580;SDS011;4328;48.622;9.230;2022-07-23T13:38:03;5.70;;;5.15;;
8580;SDS011;4328;48.622;9.230;2022-07-23T13:40:32;5.30;;;4.68;;
8580;SDS011;4328;48.622;9.230;2022-07-23T13:42:59;5.35;;;4.85;;
8580;SDS011;4328;48.622;9.230;2022-07-23T13:45:27;5.40;;;5.00;;
8580;SDS011;4328;48.622;9.230;2022-07-23T13:47:54;5.75;;;5.22;;
8580;SDS011;4328;48.622;9.230;2022-07-23T13:50:21;5.20;;;4.80;;
8580;SDS011;4328;48.622;9.230;2022-07-23T13:52:49;5.32;;;4.93;;
8580;SDS011;4328;48.622;9.230;2022-07-23T13:55:15;5.18;;;4.88;;
8580;SDS011;4328;48.622;9.230;2022-07-23T13:57:42;6.10;;;4.95;;
8580;SDS011;4328;48.622;9.230;2022-07-23T14:00:10;5.80;;;5.30;;
8580;SDS011;4328;48.622;9.230;2022-07-23T14:02:39;5.43;;;5.13;;
8580;SDS011;4328;48.622;9.230;2022-07-23T14:05:07;5.80;;;5.40;;
8580;SDS011;4328;48.622;9.230;2022-07-23T14:07:35;5.68;;;5.28;;
8580;SDS011;4328;48.622;9.230;2022-07-23T14:10:04;5.63;;;5.22;;
8580;SDS011;4328;48.622;9.230;2022-07-23T14:12:33;5.78;;;5.32;;
8580;SDS011;4328;48.622;9.230;2022-07-23T14:15:00;5.60;;;5.20;;
8580;SDS011;4328;48.622;9.230;2022-07-23T14:17:27;6.13;;;5.65;;
8580;SDS011;4328;48.622;9.230;2022-07-23T14:19:55;5.72;;;5.22;;
8580;SDS011;4328;48.622;9.230;2022-07-23T14:22:22;5.05;;;4.68;;
8580;SDS011;4328;48.622;9.230;2022-07-23T14:24:48;5.40;;;5.00;;
8580;SDS011;4328;48.622;9.230;2022-07-23T14:27:15;5.50;;;5.10;;
8580;SDS011;4328;48.622;9.230;2022-07-23T14:29:42;5.43;;;4.93;;
8580;SDS011;4328;48.622;9.230;2022-07-23T14:32:09;5.30;;;4.90;;
8580;SDS011;4328;48.622;9.230;2022-07-23T14:34:37;5.38;;;4.97;;
8580;SDS011;4328;48.622;9.230;2022-07-23T14:37:05;5.55;;;5.15;;
8580;SDS011;4328;48.622;9.230;2022-07-23T14:39:31;5.78;;;5.30;;
8580;SDS011;4328;48.622;9.230;2022-07-23T14:41:58;5.30;;;4.90;;
8580;SDS011;4328;48.622;9.230;2022-07-23T14:44:25;5.90;;;5.45;;
8580;SDS011;4328;48.622;9.230;2022-07-23T14:46:54;5.60;;;5.10;;
8580;SDS011;4328;48.622;9.230;2022-07-23T14:49:20;5.43;;;4.90;;
8580;SDS011;4328;48.622;9.230;2022-07-23T14:51:47;5.53;;;5.00;;
8580;SDS011;4328;48.622;9.230;2022-07-23T14:54:15;6.07;;;5.38;;
8580;SDS011;4328;48.622;9.230;2022-07-23T14:56:42;5.72;;;5.20;;
8580;SDS011;4328;48.622;9.230;2022-07-23T14:59:09;5.93;;;5.32;;
8580;SDS011;4328;48.622;9.230;2022-07-23T15:01:35;5.43;;;5.03;;
8580;SDS011;4328;48.622;9.230;2022-07-23T15:04:02;5.20;;;4.80;;
8580;SDS011;4328;48.622;9.230;2022-07-23T15:06:29;5.72;;;5.28;;
8580;SDS011;4328;48.622;9.230;2022-07-23T15:08:57;5.57;;;4.88;;
8580;SDS011;4328;48.622;9.230;2022-07-23T15:11:26;6.57;;;5.65;;
8580;SDS011;4328;48.622;9.230;2022-07-23T15:13:54;5.88;;;5.40;;
8580;SDS011;4328;48.622;9.230;2022-07-23T15:16:20;5.78;;;5.28;;
8580;SDS011;4328;48.622;9.230;2022-07-23T15:18:47;6.20;;;5.60;;
8580;SDS011;4328;48.622;9.230;2022-07-23T15:21:14;6.32;;;5.78;;
8580;SDS011;4328;48.622;9.230;2022-07-23T15:23:40;5.25;;;4.85;;
8580;SDS011;4328;48.622;9.230;2022-07-23T15:26:07;5.72;;;5.32;;
8580;SDS011;4328;48.622;9.230;2022-07-23T15:28:35;5.60;;;5.20;;
8580;SDS011;4328;48.622;9.230;2022-07-23T15:31:02;5.60;;;5.10;;
8580;SDS011;4328;48.622;9.230;2022-07-23T15:33:30;5.68;;;5.28;;
8580;SDS011;4328;48.622;9.230;2022-07-23T15:35:56;6.30;;;5.80;;
8580;SDS011;4328;48.622;9.230;2022-07-23T15:38:24;5.65;;;5.20;;
8580;SDS011;4328;48.622;9.230;2022-07-23T15:40:52;5.90;;;5.47;;